createdAt,value
2022-07-25T00:01:36.353Z,12.90
2022-07-25T00:04:04.217Z,12.90
2022-07-25T00:06:30.846Z,12.90
2022-07-25T00:08:57.330Z,12.80
2022-07-25T00:11:23.580Z,12.80
2022-07-25T00:13:50.009Z,12.80
2022-07-25T00:16:16.293Z,12.80
2022-07-25T00:18:42.831Z,12.90
2022-07-25T00:21:09.034Z,12.80
2022-07-25T00:23:35.306Z,12.80
2022-07-25T00:26:01.527Z,12.80
2022-07-25T00:28:27.830Z,12.80
2022-07-25T00:30:54.998Z,12.70
2022-07-25T00:33:21.230Z,12.80
2022-07-25T00:35:47.489Z,12.80
2022-07-25T00:38:13.747Z,12.80
2022-07-25T00:40:39.984Z,12.70
2022-07-25T00:43:06.212Z,12.70
2022-07-25T00:45:32.462Z,12.60
2022-07-25T00:47:58.686Z,12.60
2022-07-25T00:50:24.999Z,12.60
2022-07-25T00:52:51.671Z,12.60
2022-07-25T00:55:18.204Z,13.20
2022-07-25T00:57:44.511Z,12.50
2022-07-25T01:00:12.743Z,12.50
2022-07-25T01:02:39.662Z,12.50
2022-07-25T01:05:08.845Z,12.60
2022-07-25T01:07:37.598Z,12.60
2022-07-25T01:10:04.779Z,12.50
2022-07-25T01:12:31.022Z,12.50
2022-07-25T01:14:57.431Z,12.40
2022-07-25T01:17:24.180Z,12.40
2022-07-25T01:19:52.597Z,12.40
2022-07-25T01:22:18.926Z,12.40
2022-07-25T01:24:45.179Z,12.30
2022-07-25T01:27:17.510Z,12.30
2022-07-25T01:29:44.097Z,12.20
2022-07-25T01:32:11.839Z,12.30
2022-07-25T01:34:38.063Z,12.40
2022-07-25T01:37:04.255Z,12.40
2022-07-25T01:39:30.479Z,12.40
2022-07-25T01:41:56.709Z,12.30
2022-07-25T01:44:22.939Z,12.30
2022-07-25T01:46:49.195Z,12.20
2022-07-25T01:49:15.538Z,12.20
2022-07-25T01:51:41.982Z,12.20
2022-07-25T01:54:09.653Z,12.20
2022-07-25T01:56:37.003Z,12.20
2022-07-25T01:59:03.231Z,12.20
2022-07-25T02:01:29.479Z,12.20
2022-07-25T02:03:55.804Z,12.20
2022-07-25T02:06:22.021Z,12.10
2022-07-25T02:08:48.264Z,12.00
2022-07-25T02:11:14.524Z,12.20
2022-07-25T02:13:40.887Z,12.30
2022-07-25T02:16:08.130Z,12.40
2022-07-25T02:18:34.560Z,12.50
2022-07-25T02:21:00.912Z,12.60
2022-07-25T02:23:27.164Z,12.70
2022-07-25T02:25:53.378Z,12.70
2022-07-25T02:28:19.818Z,12.80
2022-07-25T02:30:46.073Z,12.80
2022-07-25T02:33:12.835Z,12.80
2022-07-25T02:35:39.070Z,12.70
2022-07-25T02:38:05.337Z,12.60
2022-07-25T02:40:31.559Z,12.50
2022-07-25T02:42:57.841Z,12.40
2022-07-25T02:45:24.111Z,12.30
2022-07-25T02:47:50.357Z,12.20
2022-07-25T02:50:18.376Z,12.20
2022-07-25T02:52:45.266Z,12.10
2022-07-25T02:55:11.490Z,12.10
2022-07-25T02:57:38.211Z,12.00
2022-07-25T03:00:05.882Z,12.00
2022-07-25T03:02:32.406Z,12.00
2022-07-25T03:04:58.885Z,11.90
2022-07-25T03:07:25.129Z,11.90
2022-07-25T03:09:51.381Z,12.00
2022-07-25T03:12:17.863Z,11.90
2022-07-25T03:14:44.089Z,11.80
2022-07-25T03:17:10.399Z,11.80
2022-07-25T03:19:36.854Z,11.80
2022-07-25T03:22:03.151Z,11.90
2022-07-25T03:24:29.932Z,11.90
2022-07-25T03:26:56.169Z,11.90
2022-07-25T03:29:22.796Z,11.90
2022-07-25T03:31:49.126Z,12.00
2022-07-25T03:34:15.399Z,12.00
2022-07-25T03:36:41.930Z,12.10
2022-07-25T03:39:08.212Z,12.20
2022-07-25T03:41:34.495Z,12.00
2022-07-25T03:44:03.831Z,12.40
2022-07-25T03:46:30.538Z,12.60
2022-07-25T03:48:57.608Z,14.10
2022-07-25T03:51:24.069Z,15.00
2022-07-25T03:54:02.011Z,16.00
2022-07-25T03:56:41.505Z,18.00
2022-07-25T03:59:13.191Z,19.40
2022-07-25T04:01:39.605Z,20.00
2022-07-25T04:04:06.182Z,20.60
2022-07-25T04:06:33.102Z,21.40
2022-07-25T04:08:59.377Z,22.20
2022-07-25T04:11:25.707Z,23.20
2022-07-25T04:13:52.003Z,23.80
2022-07-25T04:16:18.516Z,24.00
2022-07-25T04:18:50.323Z,24.10
2022-07-25T04:21:16.629Z,23.70
2022-07-25T04:23:43.461Z,22.70
2022-07-25T04:26:09.742Z,23.70
2022-07-25T04:28:36.166Z,24.30
2022-07-25T04:31:02.416Z,23.90
2022-07-25T04:33:28.821Z,24.00
2022-07-25T04:35:55.081Z,23.90
2022-07-25T04:38:21.335Z,23.10
2022-07-25T04:40:47.568Z,23.00
2022-07-25T04:43:13.916Z,23.60
2022-07-25T04:45:40.190Z,24.20
2022-07-25T04:48:06.681Z,23.30
2022-07-25T04:50:32.922Z,22.40
2022-07-25T04:53:00.488Z,21.60
2022-07-25T04:55:26.730Z,20.90
2022-07-25T04:57:53.039Z,20.70
2022-07-25T05:00:19.251Z,20.50
2022-07-25T05:02:45.588Z,20.20
2022-07-25T05:05:20.844Z,20.00
2022-07-25T05:07:47.656Z,19.70
2022-07-25T05:10:13.887Z,19.50
2022-07-25T05:12:40.131Z,19.60
2022-07-25T05:15:07.636Z,19.40
2022-07-25T05:17:33.949Z,19.50
2022-07-25T05:20:00.177Z,19.60
2022-07-25T05:22:28.395Z,19.50
2022-07-25T05:24:55.924Z,19.50
2022-07-25T05:27:22.465Z,19.60
2022-07-25T05:29:49.083Z,19.50
2022-07-25T05:32:15.741Z,19.30
2022-07-25T05:34:41.939Z,19.20
2022-07-25T05:37:08.169Z,19.20
2022-07-25T05:39:34.445Z,19.30
2022-07-25T05:42:00.696Z,19.30
2022-07-25T05:44:26.929Z,19.30
2022-07-25T05:46:53.275Z,19.40
2022-07-25T05:49:19.917Z,19.60
2022-07-25T05:51:46.397Z,19.80
2022-07-25T05:54:12.673Z,19.90
2022-07-25T05:56:38.922Z,20.30
2022-07-25T05:59:05.180Z,21.00
2022-07-25T06:01:31.571Z,21.80
2022-07-25T06:03:57.906Z,22.70
2022-07-25T06:06:24.959Z,23.30
2022-07-25T06:08:51.258Z,23.50
2022-07-25T06:11:20.672Z,24.00
2022-07-25T06:13:47.739Z,24.00
2022-07-25T06:16:14.048Z,24.00
2022-07-25T06:18:40.367Z,24.20
2022-07-25T06:21:06.612Z,24.40
2022-07-25T06:23:32.871Z,24.50
2022-07-25T06:25:59.162Z,24.40
2022-07-25T06:28:25.645Z,24.50
2022-07-25T06:30:52.166Z,25.30
2022-07-25T06:33:18.425Z,25.60
2022-07-25T06:35:44.696Z,25.70
2022-07-25T06:38:10.987Z,25.80
2022-07-25T06:40:37.227Z,25.70
2022-07-25T06:43:03.551Z,25.70
2022-07-25T06:45:29.875Z,25.80
2022-07-25T06:47:56.440Z,25.40
2022-07-25T06:50:23.153Z,25.50
2022-07-25T06:52:49.615Z,26.10
2022-07-25T06:55:15.863Z,27.30
2022-07-25T06:57:42.752Z,27.80
2022-07-25T07:00:11.017Z,28.30
2022-07-25T07:02:51.633Z,29.60
2022-07-25T07:05:18.661Z,30.00
2022-07-25T07:07:47.770Z,31.00
2022-07-25T07:10:15.895Z,31.60
2022-07-25T07:15:10.167Z,32.30
2022-07-25T07:17:36.658Z,31.80
2022-07-25T07:20:04.611Z,32.20
2022-07-25T07:22:30.847Z,32.80
2022-07-25T07:24:57.081Z,33.50
2022-07-25T07:27:23.863Z,33.50
2022-07-25T07:29:50.270Z,33.60
2022-07-25T07:32:17.401Z,34.50
2022-07-25T07:34:43.867Z,33.90
2022-07-25T07:37:10.581Z,33.60
2022-07-25T07:39:37.004Z,33.80
2022-07-25T07:42:04.221Z,33.60
2022-07-25T07:44:30.701Z,33.90
2022-07-25T07:46:56.991Z,33.50
2022-07-25T07:49:23.323Z,34.40
2022-07-25T07:51:49.719Z,33.90
2022-07-25T07:54:34.554Z,34.20
2022-07-25T07:57:02.415Z,34.40
2022-07-25T07:59:28.769Z,34.30
2022-07-25T08:01:55.209Z,34.10
2022-07-25T08:04:21.723Z,34.20
2022-07-25T08:06:48.241Z,34.30
2022-07-25T08:09:14.778Z,33.80
2022-07-25T08:11:41.210Z,33.90
2022-07-25T08:14:07.983Z,34.50
2022-07-25T08:16:35.785Z,34.10
2022-07-25T08:19:02.537Z,35.00
2022-07-25T08:21:28.827Z,34.80
2022-07-25T08:23:55.128Z,34.20
2022-07-25T08:26:21.393Z,34.40
2022-07-25T08:28:52.548Z,34.50
2022-07-25T08:31:27.489Z,34.60
2022-07-25T08:33:54.053Z,34.60
2022-07-25T08:36:20.346Z,34.90
2022-07-25T08:38:46.622Z,35.60
2022-07-25T08:41:13.044Z,35.30
2022-07-25T08:43:39.384Z,35.50
2022-07-25T08:46:06.442Z,35.40
2022-07-25T08:48:33.136Z,35.90
2022-07-25T08:51:00.001Z,36.00
2022-07-25T08:53:33.474Z,35.70
2022-07-25T08:56:00.860Z,35.50
2022-07-25T08:58:27.225Z,35.60
2022-07-25T09:00:53.559Z,35.30
2022-07-25T09:03:19.828Z,35.70
2022-07-25T09:05:46.335Z,35.90
2022-07-25T09:08:14.248Z,35.80
2022-07-25T09:10:48.545Z,35.80
2022-07-25T09:13:15.219Z,35.60
2022-07-25T09:15:46.640Z,35.60
2022-07-25T09:18:17.005Z,36.00
2022-07-25T09:20:52.708Z,36.30
2022-07-25T09:24:22.121Z,35.60
2022-07-25T09:26:50.117Z,35.70
2022-07-25T09:29:24.381Z,35.90
2022-07-25T09:31:51.670Z,35.50
2022-07-25T09:34:40.505Z,35.70
2022-07-25T09:37:08.618Z,36.00
2022-07-25T09:39:46.672Z,36.70
2022-07-25T09:42:25.047Z,36.40
2022-07-25T09:44:58.653Z,36.30
2022-07-25T09:47:25.155Z,36.70
2022-07-25T09:49:51.798Z,36.20
2022-07-25T09:52:18.129Z,36.20
2022-07-25T09:54:44.546Z,35.20
2022-07-25T09:57:10.833Z,35.30
2022-07-25T09:59:37.630Z,35.60
2022-07-25T10:03:41.773Z,35.70
2022-07-25T10:07:34.029Z,35.50
2022-07-25T10:10:03.012Z,34.90
2022-07-25T10:12:29.394Z,34.90
2022-07-25T10:15:12.279Z,34.60
2022-07-25T10:17:39.444Z,35.00
2022-07-25T10:20:07.338Z,35.20
2022-07-25T10:22:56.635Z,35.90
2022-07-25T10:25:23.386Z,35.50
2022-07-25T10:27:52.997Z,35.30
2022-07-25T10:30:23.882Z,35.70
2022-07-25T10:33:01.044Z,36.20
2022-07-25T10:35:28.008Z,36.30
2022-07-25T10:37:55.687Z,36.40
2022-07-25T10:40:47.638Z,36.80
2022-07-25T10:43:26.216Z,37.00
2022-07-25T10:45:57.823Z,36.40
2022-07-25T10:48:31.106Z,36.90
2022-07-25T10:51:05.915Z,36.80
2022-07-25T10:53:43.824Z,36.00
2022-07-25T10:56:14.133Z,36.70
2022-07-25T10:59:00.350Z,36.70
2022-07-25T11:01:34.997Z,36.30
2022-07-25T11:04:04.670Z,36.50
2022-07-25T11:06:41.217Z,37.20
2022-07-25T11:09:21.589Z,36.30
2022-07-25T11:11:53.439Z,36.20
2022-07-25T11:14:33.416Z,36.30
2022-07-25T11:17:20.346Z,36.30
2022-07-25T11:19:57.732Z,35.70
2022-07-25T11:22:25.091Z,35.50
2022-07-25T11:24:51.727Z,36.50
2022-07-25T11:27:28.505Z,36.60
2022-07-25T11:30:14.887Z,37.00
2022-07-25T11:32:52.627Z,36.60
2022-07-25T11:35:26.983Z,36.50
2022-07-25T11:37:53.306Z,36.70
2022-07-25T11:40:19.888Z,36.80
2022-07-25T11:42:47.635Z,36.60
2022-07-25T11:45:18.743Z,36.50
2022-07-25T11:47:45.239Z,36.80
2022-07-25T11:50:14.326Z,36.90
2022-07-25T11:52:42.167Z,36.60
2022-07-25T11:55:10.403Z,36.70
2022-07-25T11:57:43.891Z,37.30
2022-07-25T12:00:16.736Z,37.20
2022-07-25T12:02:43.116Z,37.10
2022-07-25T12:05:11.165Z,36.90
2022-07-25T12:07:47.845Z,36.90
2022-07-25T12:10:33.614Z,36.90
2022-07-25T12:13:03.714Z,37.00
2022-07-25T12:15:32.117Z,37.00
2022-07-25T12:17:58.653Z,36.80
2022-07-25T12:20:26.833Z,36.80
2022-07-25T12:22:55.084Z,36.80
2022-07-25T12:27:48.135Z,36.60
2022-07-25T12:30:14.868Z,36.80
2022-07-25T12:32:41.356Z,36.40
2022-07-25T12:35:09.208Z,36.30
2022-07-25T12:37:35.482Z,36.00
2022-07-25T12:40:01.979Z,36.00
2022-07-25T12:42:28.364Z,36.50
2022-07-25T12:44:55.644Z,36.40
2022-07-25T12:47:23.170Z,36.50
2022-07-25T12:49:49.462Z,36.50
2022-07-25T12:52:15.767Z,36.50
2022-07-25T12:54:42.388Z,35.40
2022-07-25T12:57:10.167Z,36.20
2022-07-25T12:59:36.496Z,36.20
2022-07-25T13:02:03.441Z,36.30
2022-07-25T13:04:30.077Z,36.70
2022-07-25T13:06:56.472Z,36.10
2022-07-25T13:09:23.336Z,35.30
2022-07-25T13:11:50.018Z,35.40
2022-07-25T13:14:16.255Z,35.60
2022-07-25T13:16:43.765Z,36.20
2022-07-25T13:19:11.663Z,36.10
2022-07-25T13:21:38.155Z,35.50
2022-07-25T13:24:05.186Z,35.90
2022-07-25T13:26:31.478Z,36.00
2022-07-25T13:29:00.048Z,35.70
2022-07-25T13:31:26.801Z,35.70
2022-07-25T13:33:53.392Z,35.50
2022-07-25T13:36:19.678Z,35.80
2022-07-25T13:38:47.363Z,36.50
2022-07-25T13:41:13.760Z,36.40
2022-07-25T13:43:42.743Z,35.90
2022-07-25T13:46:10.306Z,36.00
2022-07-25T13:48:36.758Z,36.30
2022-07-25T13:51:05.140Z,36.30
2022-07-25T13:53:31.474Z,36.60
2022-07-25T13:55:58.216Z,36.60
2022-07-25T13:58:25.019Z,36.80
2022-07-25T14:00:51.387Z,36.60
2022-07-25T14:03:17.864Z,36.60
2022-07-25T14:05:44.242Z,36.40
2022-07-25T14:08:10.579Z,36.20
2022-07-25T14:10:37.299Z,36.20
2022-07-25T14:13:04.193Z,35.90
2022-07-25T14:15:30.435Z,35.90
2022-07-25T14:17:57.161Z,36.20
2022-07-25T14:20:23.585Z,36.20
2022-07-25T14:22:49.955Z,36.00
2022-07-25T14:25:16.266Z,35.90
2022-07-25T14:27:42.617Z,35.40
2022-07-25T14:30:10.595Z,35.40
2022-07-25T14:32:37.362Z,35.70
2022-07-25T14:35:05.584Z,36.10
2022-07-25T14:37:32.746Z,36.30
2022-07-25T14:40:02.051Z,36.20
2022-07-25T14:42:29.328Z,35.90
2022-07-25T14:44:55.587Z,35.70
2022-07-25T14:47:22.240Z,35.60
2022-07-25T14:49:49.132Z,35.40
2022-07-25T14:52:15.841Z,35.50
2022-07-25T14:54:42.157Z,35.80
2022-07-25T14:57:09.082Z,35.90
2022-07-25T14:59:35.475Z,35.90
2022-07-25T15:02:02.219Z,36.00
2022-07-25T15:04:28.907Z,36.00
2022-07-25T15:06:55.402Z,35.80
2022-07-25T15:09:21.661Z,36.00
2022-07-25T15:11:48.122Z,35.70
2022-07-25T15:14:14.490Z,34.90
2022-07-25T15:16:41.745Z,34.90
2022-07-25T15:19:17.221Z,34.90
2022-07-25T15:21:44.526Z,35.10
2022-07-25T15:24:11.160Z,35.00
2022-07-25T15:26:37.453Z,35.00
2022-07-25T15:29:07.205Z,34.90
2022-07-25T15:31:33.975Z,35.20
2022-07-25T15:34:00.462Z,35.20
2022-07-25T15:36:29.607Z,35.00
2022-07-25T15:38:56.570Z,34.70
2022-07-25T15:41:22.824Z,34.50
2022-07-25T15:43:49.217Z,34.80
2022-07-25T15:46:16.382Z,34.90
2022-07-25T15:48:43.631Z,34.70
2022-07-25T15:51:10.691Z,34.60
2022-07-25T15:53:36.997Z,34.70
2022-07-25T15:56:04.147Z,34.50
2022-07-25T15:58:31.110Z,34.50
2022-07-25T16:00:57.505Z,34.50
2022-07-25T16:03:23.854Z,34.20
2022-07-25T16:05:50.148Z,33.90
2022-07-25T16:08:16.772Z,33.70
2022-07-25T16:10:43.054Z,33.70
2022-07-25T16:13:09.332Z,33.80
2022-07-25T16:15:35.569Z,33.60
2022-07-25T16:18:02.965Z,33.50
2022-07-25T16:20:31.568Z,33.50
2022-07-25T16:22:58.449Z,33.90
2022-07-25T16:25:25.487Z,33.80
2022-07-25T16:27:52.204Z,33.50
2022-07-25T16:30:18.594Z,33.70
2022-07-25T16:32:44.797Z,33.50
2022-07-25T16:35:11.082Z,33.30
2022-07-25T16:37:37.410Z,33.20
2022-07-25T16:40:04.536Z,33.20
2022-07-25T16:42:32.950Z,33.00
2022-07-25T16:44:59.292Z,32.80
2022-07-25T16:47:25.683Z,32.80
2022-07-25T16:49:52.022Z,32.50
2022-07-25T16:52:18.277Z,32.40
2022-07-25T16:54:44.492Z,32.30
2022-07-25T16:57:10.739Z,32.10
2022-07-25T16:59:37.100Z,32.00
2022-07-25T17:02:04.850Z,31.80
2022-07-25T17:04:31.249Z,31.80
2022-07-25T17:06:57.594Z,31.70
2022-07-25T17:09:24.738Z,31.50
2022-07-25T17:11:51.091Z,31.40
2022-07-25T17:14:17.368Z,31.30
2022-07-25T17:16:44.314Z,31.00
2022-07-25T17:19:11.020Z,30.80
2022-07-25T17:21:39.936Z,30.70
2022-07-25T17:24:11.745Z,30.50
2022-07-25T17:26:45.496Z,30.20
2022-07-25T17:29:22.006Z,30.00
2022-07-25T17:31:48.359Z,29.70
2022-07-25T17:34:14.732Z,29.50
2022-07-25T17:36:48.698Z,29.20
2022-07-25T17:39:15.869Z,29.00
2022-07-25T17:41:42.188Z,28.80
2022-07-25T17:44:12.079Z,28.60
2022-07-25T17:46:38.938Z,28.50
2022-07-25T17:49:05.347Z,28.20
2022-07-25T17:51:31.654Z,28.10
2022-07-25T17:53:58.044Z,27.90
2022-07-25T17:56:26.988Z,27.70
2022-07-25T17:58:53.498Z,27.50
2022-07-25T18:01:20.911Z,27.40
2022-07-25T18:03:49.706Z,27.20
2022-07-25T18:06:36.397Z,27.00
2022-07-25T18:09:15.125Z,26.80
2022-07-25T18:11:42.732Z,26.60
2022-07-25T18:14:14.215Z,26.40
2022-07-25T18:16:40.948Z,26.20
2022-07-25T18:19:10.902Z,26.00
2022-07-25T18:21:37.192Z,25.90
2022-07-25T18:24:06.479Z,25.70
2022-07-25T18:26:36.362Z,25.60
2022-07-25T18:29:02.732Z,25.50
2022-07-25T18:31:29.079Z,25.20
2022-07-25T18:33:55.390Z,25.10
2022-07-25T18:36:44.801Z,24.90
2022-07-25T18:39:11.236Z,24.70
2022-07-25T18:41:39.730Z,24.60
2022-07-25T18:44:06.843Z,24.40
2022-07-25T18:46:33.789Z,24.30
2022-07-25T18:49:01.214Z,24.10
2022-07-25T18:51:33.047Z,24.00
2022-07-25T18:53:59.318Z,23.90
2022-07-25T18:56:39.528Z,23.80
2022-07-25T18:59:09.304Z,23.70
2022-07-25T19:01:36.244Z,23.70
2022-07-25T19:04:07.562Z,23.40
2022-07-25T19:06:34.179Z,23.30
2022-07-25T19:09:03.976Z,22.90
2022-07-25T19:11:30.497Z,23.00
2022-07-25T19:13:57.568Z,22.80
2022-07-25T19:16:24.368Z,22.70
2022-07-25T19:18:51.200Z,22.60
2022-07-25T19:21:17.536Z,22.50
2022-07-25T19:23:50.104Z,22.30
2022-07-25T19:26:20.019Z,22.30
2022-07-25T19:28:47.454Z,22.20
2022-07-25T19:31:14.050Z,22.10
2022-07-25T19:33:40.732Z,22.00
2022-07-25T19:36:08.285Z,21.90
2022-07-25T19:38:34.947Z,22.20
2022-07-25T19:41:01.907Z,22.30
2022-07-25T19:43:28.377Z,22.40
2022-07-25T19:45:54.740Z,22.30
2022-07-25T19:48:24.381Z,22.10
2022-07-25T19:50:52.868Z,21.90
2022-07-25T19:53:19.253Z,21.70
2022-07-25T19:55:45.716Z,21.60
2022-07-25T19:58:12.781Z,21.50
2022-07-25T20:00:39.310Z,21.40
2022-07-25T20:03:05.675Z,21.40
2022-07-25T20:05:32.824Z,21.40
2022-07-25T20:07:59.240Z,21.40
2022-07-25T20:10:28.126Z,21.30
2022-07-25T20:13:00.873Z,21.40
2022-07-25T20:15:28.731Z,21.50
2022-07-25T20:17:56.389Z,21.50
2022-07-25T20:20:23.966Z,21.50
2022-07-25T20:22:50.464Z,21.40
2022-07-25T20:25:18.303Z,21.40
2022-07-25T20:27:45.489Z,21.50
2022-07-25T20:30:13.291Z,21.40
2022-07-25T20:32:40.485Z,21.40
2022-07-25T20:35:09.765Z,21.30
2022-07-25T20:37:37.324Z,21.20
2022-07-25T20:40:06.429Z,21.20
2022-07-25T20:42:36.850Z,21.00
2022-07-25T20:45:08.360Z,20.90
2022-07-25T20:47:35.753Z,20.70
2022-07-25T20:50:03.213Z,20.70
2022-07-25T20:52:33.603Z,20.70
2022-07-25T20:55:01.664Z,20.70
2022-07-25T20:57:35.599Z,20.60
2022-07-25T21:00:03.265Z,20.60
2022-07-25T21:02:30.001Z,20.50
2022-07-25T21:04:56.612Z,20.40
2022-07-25T21:07:23.573Z,20.40
2022-07-25T21:09:51.748Z,20.30
2022-07-25T21:12:18.487Z,20.30
2022-07-25T21:14:45.202Z,20.20
2022-07-25T21:17:13.005Z,20.10
2022-07-25T21:19:39.331Z,20.10
2022-07-25T21:22:06.542Z,20.00
2022-07-25T21:24:33.527Z,20.00
2022-07-25T21:27:00.072Z,19.90
2022-07-25T21:29:26.548Z,20.00
2022-07-25T21:31:54.837Z,20.00
2022-07-25T21:34:21.260Z,19.90
2022-07-25T21:36:47.933Z,20.00
2022-07-25T21:39:14.220Z,20.00
2022-07-25T21:41:40.510Z,19.90
2022-07-25T21:44:06.767Z,19.90
2022-07-25T21:46:33.119Z,19.80
2022-07-25T21:49:17.949Z,19.80
2022-07-25T21:52:08.122Z,19.70
2022-07-25T21:54:36.241Z,19.70
2022-07-25T21:57:02.847Z,19.60
2022-07-25T21:59:31.771Z,19.60
2022-07-25T22:02:18.421Z,19.60
2022-07-25T22:04:44.787Z,19.70
2022-07-25T22:07:11.882Z,19.70
2022-07-25T22:09:38.272Z,19.80
2022-07-25T22:12:06.146Z,19.90
2022-07-25T22:14:33.163Z,19.90
2022-07-25T22:17:00.434Z,19.90
2022-07-25T22:19:27.454Z,21.20
2022-07-25T22:21:54.469Z,20.10
2022-07-25T22:24:21.560Z,20.20
2022-07-25T22:26:47.959Z,20.20
2022-07-25T22:29:14.693Z,20.30
2022-07-25T22:31:41.156Z,20.30
2022-07-25T22:34:08.587Z,20.40
2022-07-25T22:36:35.828Z,20.50
2022-07-25T22:39:02.875Z,20.60
2022-07-25T22:41:29.518Z,20.70
2022-07-25T22:43:59.585Z,20.70
2022-07-25T22:46:28.004Z,20.70
2022-07-25T22:48:54.800Z,20.70
2022-07-25T22:51:21.614Z,20.70
2022-07-25T22:53:48.330Z,20.70
2022-07-25T22:56:14.586Z,20.70
2022-07-25T22:58:41.398Z,20.70
2022-07-25T23:01:07.732Z,20.70
2022-07-25T23:03:35.491Z,20.70
2022-07-25T23:06:01.773Z,20.70
2022-07-25T23:08:28.235Z,20.70
2022-07-25T23:10:54.898Z,20.70
2022-07-25T23:13:21.834Z,20.70
2022-07-25T23:15:49.599Z,20.70
2022-07-25T23:18:17.773Z,20.80
2022-07-25T23:20:44.031Z,20.80
2022-07-25T23:23:10.738Z,20.70
2022-07-25T23:25:37.055Z,20.70
2022-07-25T23:28:03.525Z,20.60
2022-07-25T23:30:30.166Z,20.70
2022-07-25T23:32:56.484Z,20.60
2022-07-25T23:35:23.602Z,20.50
2022-07-25T23:38:08.430Z,20.50
2022-07-25T23:40:34.718Z,20.70
2022-07-25T23:43:01.035Z,20.30
2022-07-25T23:48:12.638Z,20.30
2022-07-25T23:50:38.977Z,20.30
2022-07-25T23:53:05.270Z,20.30
2022-07-25T23:55:32.160Z,20.30
